sensor_id;sensor_type;location;lat;lon;timestamp;pressure;altitude;pressure_sealevel;temperature;humidity
68871;BME280;55906;52.278;6.808;2023-02-17T00:01:09;101718.91;;;10.63;97.15
68871;BME280;55906;52.278;6.808;2023-02-17T00:03:36;101721.69;;;10.67;96.54
68871;BME280;55906;52.278;6.808;2023-02-17T00:06:06;101717.16;;;10.63;97.02
68871;BME280;55906;52.278;6.808;2023-02-17T00:08:33;101712.84;;;10.65;96.59
68871;BME280;55906;52.278;6.808;2023-02-17T00:10:59;101716.38;;;10.66;96.89
68871;BME280;55906;52.278;6.808;2023-02-17T00:13:26;101719.00;;;10.66;97.15
68871;BME280;55906;52.278;6.808;2023-02-17T00:15:53;101725.22;;;10.68;96.74
68871;BME280;55906;52.278;6.808;2023-02-17T00:18:19;101713.75;;;10.66;96.68
68871;BME280;55906;52.278;6.808;2023-02-17T00:20:46;101724.34;;;10.67;97.26
68871;BME280;55906;52.278;6.808;2023-02-17T00:23:15;101709.38;;;10.66;97.43
68871;BME280;55906;52.278;6.808;2023-02-17T00:25:42;101716.38;;;10.66;97.34
68871;BME280;55906;52.278;6.808;2023-02-17T00:28:09;101714.53;;;10.63;97.67
68871;BME280;55906;52.278;6.808;2023-02-17T00:30:36;101711.91;;;10.63;97.64
68871;BME280;55906;52.278;6.808;2023-02-17T00:33:03;101706.63;;;10.63;97.57
68871;BME280;55906;52.278;6.808;2023-02-17T00:35:30;101689.94;;;10.63;97.83
68871;BME280;55906;52.278;6.808;2023-02-17T00:37:56;101687.25;;;10.61;98.23
68871;BME280;55906;52.278;6.808;2023-02-17T00:40:24;101696.00;;;10.60;98.69
68871;BME280;55906;52.278;6.808;2023-02-17T00:42:51;101685.41;;;10.58;98.52
68871;BME280;55906;52.278;6.808;2023-02-17T00:45:19;101678.41;;;10.59;98.59
68871;BME280;55906;52.278;6.808;2023-02-17T00:47:45;101693.25;;;10.57;98.82
68871;BME280;55906;52.278;6.808;2023-02-17T00:50:12;101686.25;;;10.57;98.75
68871;BME280;55906;52.278;6.808;2023-02-17T00:52:39;101692.53;;;10.61;98.91
68871;BME280;55906;52.278;6.808;2023-02-17T00:55:06;101703.88;;;10.60;99.31
68871;BME280;55906;52.278;6.808;2023-02-17T00:57:34;101686.31;;;10.59;99.15
68871;BME280;55906;52.278;6.808;2023-02-17T01:00:00;101691.56;;;10.59;99.26
68871;BME280;55906;52.278;6.808;2023-02-17T01:02:27;101691.50;;;10.57;99.09
68871;BME280;55906;52.278;6.808;2023-02-17T01:04:54;101691.63;;;10.61;99.28
68871;BME280;55906;52.278;6.808;2023-02-17T01:07:20;101679.38;;;10.61;99.14
68871;BME280;55906;52.278;6.808;2023-02-17T01:09:47;101686.41;;;10.62;98.85
68871;BME280;55906;52.278;6.808;2023-02-17T01:12:13;101684.63;;;10.61;98.37
68871;BME280;55906;52.278;6.808;2023-02-17T01:14:42;101692.63;;;10.64;98.59
68871;BME280;55906;52.278;6.808;2023-02-17T01:17:08;101683.13;;;10.68;98.11
68871;BME280;55906;52.278;6.808;2023-02-17T01:19:35;101695.38;;;10.67;97.71
68871;BME280;55906;52.278;6.808;2023-02-17T01:22:01;101690.38;;;10.73;97.57
68871;BME280;55906;52.278;6.808;2023-02-17T01:24:28;101694.78;;;10.74;97.30
68871;BME280;55906;52.278;6.808;2023-02-17T01:26:55;101683.38;;;10.74;97.30
68871;BME280;55906;52.278;6.808;2023-02-17T01:29:21;101682.59;;;10.76;97.20
68871;BME280;55906;52.278;6.808;2023-02-17T01:31:49;101673.97;;;10.80;97.14
68871;BME280;55906;52.278;6.808;2023-02-17T01:34:16;101680.97;;;10.80;97.02
68871;BME280;55906;52.278;6.808;2023-02-17T01:36:42;101682.69;;;10.79;96.62
68871;BME280;55906;52.278;6.808;2023-02-17T01:39:12;101675.88;;;10.84;96.31
68871;BME280;55906;52.278;6.808;2023-02-17T01:41:38;101677.66;;;10.85;96.80
68871;BME280;55906;52.278;6.808;2023-02-17T01:44:09;101656.72;;;10.88;96.29
68871;BME280;55906;52.278;6.808;2023-02-17T01:46:37;101644.28;;;10.84;96.52
68871;BME280;55906;52.278;6.808;2023-02-17T01:49:17;101646.19;;;10.88;96.08
68871;BME280;55906;52.278;6.808;2023-02-17T01:51:48;101635.59;;;10.87;95.80
68871;BME280;55906;52.278;6.808;2023-02-17T01:54:19;101611.19;;;10.91;96.13
68871;BME280;55906;52.278;6.808;2023-02-17T01:56:48;101614.50;;;10.85;95.96
68871;BME280;55906;52.278;6.808;2023-02-17T01:59:18;101612.81;;;10.87;95.85
68871;BME280;55906;52.278;6.808;2023-02-17T02:01:46;101618.19;;;10.90;95.69
68871;BME280;55906;52.278;6.808;2023-02-17T02:04:16;101617.34;;;10.92;95.67
68871;BME280;55906;52.278;6.808;2023-02-17T02:06:44;101604.06;;;10.88;95.51
68871;BME280;55906;52.278;6.808;2023-02-17T02:09:15;101627.03;;;10.93;95.36
68871;BME280;55906;52.278;6.808;2023-02-17T02:11:46;101612.09;;;10.92;95.03
68871;BME280;55906;52.278;6.808;2023-02-17T02:14:13;101632.41;;;10.96;95.10
68871;BME280;55906;52.278;6.808;2023-02-17T02:16:44;101640.25;;;10.94;94.96
68871;BME280;55906;52.278;6.808;2023-02-17T02:19:33;101639.47;;;10.97;94.83
68871;BME280;55906;52.278;6.808;2023-02-17T02:22:21;101637.78;;;10.99;94.59
68871;BME280;55906;52.278;6.808;2023-02-17T02:24:58;101621.88;;;10.96;94.69
68871;BME280;55906;52.278;6.808;2023-02-17T02:27:50;101616.72;;;10.99;94.30
68871;BME280;55906;52.278;6.808;2023-02-17T02:30:33;101627.25;;;10.99;94.17
68871;BME280;55906;52.278;6.808;2023-02-17T02:33:12;101624.69;;;11.00;94.26
68871;BME280;55906;52.278;6.808;2023-02-17T02:35:49;101618.63;;;11.03;93.95
68871;BME280;55906;52.278;6.808;2023-02-17T02:38:21;101614.22;;;11.02;94.05
68871;BME280;55906;52.278;6.808;2023-02-17T02:40:53;101622.22;;;11.05;94.18
68871;BME280;55906;52.278;6.808;2023-02-17T02:43:23;101609.00;;;11.03;93.95
68871;BME280;55906;52.278;6.808;2023-02-17T02:45:49;101619.59;;;11.05;94.01
68871;BME280;55906;52.278;6.808;2023-02-17T02:48:17;101606.41;;;11.05;93.78
68871;BME280;55906;52.278;6.808;2023-02-17T02:50:54;101614.25;;;11.03;94.19
68871;BME280;55906;52.278;6.808;2023-02-17T02:53:48;101619.59;;;11.05;93.78
68871;BME280;55906;52.278;6.808;2023-02-17T02:56:22;101605.47;;;11.03;93.89
68871;BME280;55906;52.278;6.808;2023-02-17T02:58:59;101607.31;;;11.05;94.04
68871;BME280;55906;52.278;6.808;2023-02-17T03:01:35;101602.03;;;11.05;93.78
68871;BME280;55906;52.278;6.808;2023-02-17T03:04:08;101595.09;;;11.07;93.98
68871;BME280;55906;52.278;6.808;2023-02-17T03:06:41;101601.16;;;11.05;93.43
68871;BME280;55906;52.278;6.808;2023-02-17T03:09:10;101602.94;;;11.06;93.34
68871;BME280;55906;52.278;6.808;2023-02-17T03:11:38;101595.94;;;11.06;93.29
68871;BME280;55906;52.278;6.808;2023-02-17T03:14:07;101584.63;;;11.09;93.33
68871;BME280;55906;52.278;6.808;2023-02-17T03:16:34;101585.69;;;11.14;92.73
68871;BME280;55906;52.278;6.808;2023-02-17T03:19:02;101590.03;;;11.13;92.23
68871;BME280;55906;52.278;6.808;2023-02-17T03:21:34;101578.63;;;11.13;92.66
68871;BME280;55906;52.278;6.808;2023-02-17T03:24:03;101574.09;;;11.09;92.34
68871;BME280;55906;52.278;6.808;2023-02-17T03:26:30;101575.81;;;11.08;92.69
68871;BME280;55906;52.278;6.808;2023-02-17T03:28:56;101570.66;;;11.11;92.66
68871;BME280;55906;52.278;6.808;2023-02-17T03:31:23;101567.97;;;11.10;92.45
68871;BME280;55906;52.278;6.808;2023-02-17T03:33:50;101574.13;;;11.10;92.19
68871;BME280;55906;52.278;6.808;2023-02-17T03:36:17;101566.19;;;11.09;92.27
68871;BME280;55906;52.278;6.808;2023-02-17T03:38:45;101549.66;;;11.13;91.71
68871;BME280;55906;52.278;6.808;2023-02-17T03:41:11;101557.56;;;11.13;91.67
68871;BME280;55906;52.278;6.808;2023-02-17T03:43:38;101552.19;;;11.10;91.96
68871;BME280;55906;52.278;6.808;2023-02-17T03:46:09;101546.22;;;11.15;91.17
68871;BME280;55906;52.278;6.808;2023-02-17T03:48:36;101532.91;;;11.11;91.33
68871;BME280;55906;52.278;6.808;2023-02-17T03:51:09;101528.59;;;11.13;91.03
68871;BME280;55906;52.278;6.808;2023-02-17T03:53:35;101550.38;;;11.09;90.61
68871;BME280;55906;52.278;6.808;2023-02-17T03:56:04;101547.97;;;11.15;90.57
68871;BME280;55906;52.278;6.808;2023-02-17T03:58:30;101554.97;;;11.14;90.21
68871;BME280;55906;52.278;6.808;2023-02-17T04:00:57;101553.97;;;11.11;90.80
68871;BME280;55906;52.278;6.808;2023-02-17T04:03:24;101536.44;;;11.11;90.33
68871;BME280;55906;52.278;6.808;2023-02-17T04:05:50;101534.59;;;11.09;90.50
68871;BME280;55906;52.278;6.808;2023-02-17T04:08:19;101519.69;;;11.09;90.66
68871;BME280;55906;52.278;6.808;2023-02-17T04:10:45;101526.59;;;11.06;90.40
68871;BME280;55906;52.278;6.808;2023-02-17T04:13:13;101514.31;;;11.06;90.76
68871;BME280;55906;52.278;6.808;2023-02-17T04:15:40;101521.31;;;11.06;90.00
68871;BME280;55906;52.278;6.808;2023-02-17T04:18:06;101529.13;;;11.03;89.79
68871;BME280;55906;52.278;6.808;2023-02-17T04:20:33;101527.44;;;11.05;89.67
68871;BME280;55906;52.278;6.808;2023-02-17T04:22:59;101522.09;;;11.03;88.97
68871;BME280;55906;52.278;6.808;2023-02-17T04:25:26;101526.63;;;11.07;89.09
68871;BME280;55906;52.278;6.808;2023-02-17T04:27:53;101534.44;;;11.04;88.23
68871;BME280;55906;52.278;6.808;2023-02-17T04:30:21;101523.06;;;11.05;88.02
68871;BME280;55906;52.278;6.808;2023-02-17T04:32:47;101519.47;;;11.03;87.68
68871;BME280;55906;52.278;6.808;2023-02-17T04:35:14;101547.50;;;11.01;87.46
68871;BME280;55906;52.278;6.808;2023-02-17T04:37:41;101556.28;;;11.02;87.31
68871;BME280;55906;52.278;6.808;2023-02-17T04:40:08;101542.31;;;11.04;87.34
68871;BME280;55906;52.278;6.808;2023-02-17T04:42:35;101551.91;;;11.02;87.57
68871;BME280;55906;52.278;6.808;2023-02-17T04:45:02;101546.81;;;11.07;86.81
68871;BME280;55906;52.278;6.808;2023-02-17T04:47:30;101540.59;;;11.05;87.03
68871;BME280;55906;52.278;6.808;2023-02-17T04:49:56;101537.16;;;11.07;87.20
68871;BME280;55906;52.278;6.808;2023-02-17T04:52:23;101542.31;;;11.04;87.22
68871;BME280;55906;52.278;6.808;2023-02-17T04:54:50;101537.84;;;11.02;86.84
68871;BME280;55906;52.278;6.808;2023-02-17T04:57:16;101523.84;;;11.03;86.46
68871;BME280;55906;52.278;6.808;2023-02-17T04:59:43;101514.16;;;11.02;86.72
68871;BME280;55906;52.278;6.808;2023-02-17T05:02:10;101491.47;;;11.05;86.35
68871;BME280;55906;52.278;6.808;2023-02-17T05:04:38;101506.31;;;11.03;87.02
68871;BME280;55906;52.278;6.808;2023-02-17T05:07:04;101516.91;;;11.05;86.82
68871;BME280;55906;52.278;6.808;2023-02-17T05:09:31;101500.88;;;10.99;87.05
68871;BME280;55906;52.278;6.808;2023-02-17T05:11:58;101510.69;;;11.03;87.04
68871;BME280;55906;52.278;6.808;2023-02-17T05:14:24;101502.72;;;11.01;86.62
68871;BME280;55906;52.278;6.808;2023-02-17T05:16:51;101503.69;;;11.03;86.66
68871;BME280;55906;52.278;6.808;2023-02-17T05:19:18;101501.09;;;11.05;87.22
68871;BME280;55906;52.278;6.808;2023-02-17T05:21:46;101503.78;;;11.06;87.13
68871;BME280;55906;52.278;6.808;2023-02-17T05:24:12;101499.31;;;11.04;87.26
68871;BME280;55906;52.278;6.808;2023-02-17T05:26:39;101492.34;;;11.06;86.94
68871;BME280;55906;52.278;6.808;2023-02-17T05:29:05;101484.47;;;11.06;86.81
68871;BME280;55906;52.278;6.808;2023-02-17T05:31:32;101473.94;;;11.06;87.36
68871;BME280;55906;52.278;6.808;2023-02-17T05:33:59;101488.81;;;11.05;87.67
68871;BME280;55906;52.278;6.808;2023-02-17T05:36:25;101519.75;;;11.11;87.42
68871;BME280;55906;52.278;6.808;2023-02-17T05:38:53;101519.63;;;11.08;87.92
68871;BME280;55906;52.278;6.808;2023-02-17T05:41:20;101527.44;;;11.05;87.95
68871;BME280;55906;52.278;6.808;2023-02-17T05:43:46;101508.16;;;11.06;87.71
68871;BME280;55906;52.278;6.808;2023-02-17T05:46:13;101511.78;;;11.09;87.69
68871;BME280;55906;52.278;6.808;2023-02-17T05:48:40;101501.31;;;11.11;87.75
68871;BME280;55906;52.278;6.808;2023-02-17T05:51:08;101500.41;;;11.10;88.12
68871;BME280;55906;52.278;6.808;2023-02-17T05:53:35;101500.09;;;11.01;89.34
68871;BME280;55906;52.278;6.808;2023-02-17T05:56:03;101499.00;;;10.95;90.40
68871;BME280;55906;52.278;6.808;2023-02-17T05:58:30;101499.56;;;10.86;91.54
68871;BME280;55906;52.278;6.808;2023-02-17T06:00:56;101485.25;;;10.78;92.16
68871;BME280;55906;52.278;6.808;2023-02-17T06:03:23;101510.47;;;10.71;92.99
68871;BME280;55906;52.278;6.808;2023-02-17T06:05:50;101494.41;;;10.64;94.40
68871;BME280;55906;52.278;6.808;2023-02-17T06:08:16;101492.56;;;10.61;95.17
68871;BME280;55906;52.278;6.808;2023-02-17T06:10:43;101481.88;;;10.56;95.38
68871;BME280;55906;52.278;6.808;2023-02-17T06:13:11;101491.44;;;10.54;95.83
68871;BME280;55906;52.278;6.808;2023-02-17T06:15:37;101488.66;;;10.50;96.69
68871;BME280;55906;52.278;6.808;2023-02-17T06:18:04;101479.81;;;10.48;96.88
68871;BME280;55906;52.278;6.808;2023-02-17T06:20:30;101472.69;;;10.45;97.78
68871;BME280;55906;52.278;6.808;2023-02-17T06:22:57;101477.00;;;10.43;97.67
68871;BME280;55906;52.278;6.808;2023-02-17T06:25:24;101474.28;;;10.40;97.83
68871;BME280;55906;52.278;6.808;2023-02-17T06:27:50;101462.81;;;10.40;97.75
68871;BME280;55906;52.278;6.808;2023-02-17T06:30:18;101473.28;;;10.38;98.27
68871;BME280;55906;52.278;6.808;2023-02-17T06:32:45;101478.59;;;10.40;98.50
68871;BME280;55906;52.278;6.808;2023-02-17T06:35:12;101504.22;;;10.44;98.23
68871;BME280;55906;52.278;6.808;2023-02-17T06:37:39;101483.94;;;10.41;98.05
68871;BME280;55906;52.278;6.808;2023-02-17T06:40:06;101471.75;;;10.43;98.14
68871;BME280;55906;52.278;6.808;2023-02-17T06:42:33;101491.91;;;10.43;98.20
68871;BME280;55906;52.278;6.808;2023-02-17T06:45:00;101477.91;;;10.44;97.92
68871;BME280;55906;52.278;6.808;2023-02-17T06:47:31;101478.84;;;10.46;98.16
68871;BME280;55906;52.278;6.808;2023-02-17T06:49:58;101490.44;;;10.51;97.77
68871;BME280;55906;52.278;6.808;2023-02-17T06:52:25;101484.38;;;10.53;97.68
68871;BME280;55906;52.278;6.808;2023-02-17T06:54:52;101481.81;;;10.55;97.05
68871;BME280;55906;52.278;6.808;2023-02-17T06:57:19;101477.63;;;10.60;96.73
68871;BME280;55906;52.278;6.808;2023-02-17T06:59:45;101481.13;;;10.61;96.91
68871;BME280;55906;52.278;6.808;2023-02-17T07:02:13;101483.78;;;10.61;97.26
68871;BME280;55906;52.278;6.808;2023-02-17T07:04:41;101481.31;;;10.65;96.61
68871;BME280;55906;52.278;6.808;2023-02-17T07:07:08;101480.47;;;10.66;96.49
68871;BME280;55906;52.278;6.808;2023-02-17T07:09:36;101460.34;;;10.68;96.67
68871;BME280;55906;52.278;6.808;2023-02-17T07:12:03;101478.00;;;10.71;96.29
68871;BME280;55906;52.278;6.808;2023-02-17T07:14:31;101471.94;;;10.73;96.06
68871;BME280;55906;52.278;6.808;2023-02-17T07:16:59;101469.31;;;10.73;95.87
68871;BME280;55906;52.278;6.808;2023-02-17T07:19:26;101482.63;;;10.78;96.06
68871;BME280;55906;52.278;6.808;2023-02-17T07:21:53;101455.47;;;10.79;95.68
68871;BME280;55906;52.278;6.808;2023-02-17T07:24:20;101497.69;;;10.82;95.08
68871;BME280;55906;52.278;6.808;2023-02-17T07:26:47;101479.31;;;10.83;95.56
68871;BME280;55906;52.278;6.808;2023-02-17T07:29:13;101459.03;;;10.81;95.31
68871;BME280;55906;52.278;6.808;2023-02-17T07:31:40;101466.03;;;10.80;95.21
68871;BME280;55906;52.278;6.808;2023-02-17T07:34:07;101480.34;;;10.88;95.19
68871;BME280;55906;52.278;6.808;2023-02-17T07:36:33;101464.66;;;10.92;94.51
68871;BME280;55906;52.278;6.808;2023-02-17T07:39:01;101468.47;;;11.00;94.34
68871;BME280;55906;52.278;6.808;2023-02-17T07:41:28;101455.09;;;10.94;94.77
68871;BME280;55906;52.278;6.808;2023-02-17T07:43:58;101465.63;;;10.94;94.81
68871;BME280;55906;52.278;6.808;2023-02-17T07:46:25;101460.34;;;10.94;94.55
68871;BME280;55906;52.278;6.808;2023-02-17T07:48:52;101482.47;;;10.99;94.09
68871;BME280;55906;52.278;6.808;2023-02-17T07:51:20;101472.78;;;10.98;94.41
68871;BME280;55906;52.278;6.808;2023-02-17T07:53:48;101468.34;;;10.97;94.37
68871;BME280;55906;52.278;6.808;2023-02-17T07:56:18;101479.03;;;11.01;94.61
68871;BME280;55906;52.278;6.808;2023-02-17T07:58:46;101465.03;;;11.02;94.29
68871;BME280;55906;52.278;6.808;2023-02-17T08:01:16;101461.59;;;11.05;94.17
68871;BME280;55906;52.278;6.808;2023-02-17T08:03:44;101466.97;;;11.08;94.55
68871;BME280;55906;52.278;6.808;2023-02-17T08:06:12;101479.34;;;11.10;94.35
68871;BME280;55906;52.278;6.808;2023-02-17T08:08:43;101453.84;;;11.09;94.63
68871;BME280;55906;52.278;6.808;2023-02-17T08:11:29;101474.03;;;11.09;94.10
68871;BME280;55906;52.278;6.808;2023-02-17T08:14:13;101467.91;;;11.10;94.21
68871;BME280;55906;52.278;6.808;2023-02-17T08:16:40;101451.31;;;11.12;93.77
68871;BME280;55906;52.278;6.808;2023-02-17T08:19:07;101453.13;;;11.13;94.01
68871;BME280;55906;52.278;6.808;2023-02-17T08:21:33;101451.47;;;11.17;94.26
68871;BME280;55906;52.278;6.808;2023-02-17T08:24:00;101455.94;;;11.19;94.10
68871;BME280;55906;52.278;6.808;2023-02-17T08:26:28;101484.97;;;11.21;94.10
68871;BME280;55906;52.278;6.808;2023-02-17T08:28:55;101462.31;;;11.26;93.77
68871;BME280;55906;52.278;6.808;2023-02-17T08:31:23;101463.16;;;11.25;93.21
68871;BME280;55906;52.278;6.808;2023-02-17T08:33:50;101466.84;;;11.30;93.18
68871;BME280;55906;52.278;6.808;2023-02-17T08:36:17;101464.25;;;11.32;92.93
68871;BME280;55906;52.278;6.808;2023-02-17T08:38:46;101468.72;;;11.34;92.83
68871;BME280;55906;52.278;6.808;2023-02-17T08:41:16;101494.25;;;11.37;92.38
68871;BME280;55906;52.278;6.808;2023-02-17T08:43:44;101483.81;;;11.40;92.49
68871;BME280;55906;52.278;6.808;2023-02-17T08:46:11;101503.16;;;11.40;92.20
68871;BME280;55906;52.278;6.808;2023-02-17T08:48:38;101477.06;;;11.48;91.68
68871;BME280;55906;52.278;6.808;2023-02-17T08:51:05;101506.94;;;11.48;91.67
68871;BME280;55906;52.278;6.808;2023-02-17T08:53:33;101489.50;;;11.52;91.66
68871;BME280;55906;52.278;6.808;2023-02-17T08:56:00;101492.16;;;11.53;91.05
68871;BME280;55906;52.278;6.808;2023-02-17T08:58:26;101482.63;;;11.57;90.80
68871;BME280;55906;52.278;6.808;2023-02-17T09:00:54;101484.50;;;11.61;91.01
68871;BME280;55906;52.278;6.808;2023-02-17T09:03:21;101505.69;;;11.64;90.66
68871;BME280;55906;52.278;6.808;2023-02-17T09:05:48;101503.16;;;11.67;89.66
68871;BME280;55906;52.278;6.808;2023-02-17T09:08:14;101497.44;;;11.79;89.53
68871;BME280;55906;52.278;6.808;2023-02-17T09:10:41;101503.66;;;11.81;88.49
68871;BME280;55906;52.278;6.808;2023-02-17T09:13:08;101502.72;;;11.79;88.76
68871;BME280;55906;52.278;6.808;2023-02-17T09:15:34;101507.22;;;11.83;88.64
68871;BME280;55906;52.278;6.808;2023-02-17T09:18:02;101495.03;;;11.87;88.75
68871;BME280;55906;52.278;6.808;2023-02-17T09:20:29;101502.13;;;11.89;87.99
68871;BME280;55906;52.278;6.808;2023-02-17T09:22:56;101500.34;;;11.88;88.19
68871;BME280;55906;52.278;6.808;2023-02-17T09:25:23;101511.84;;;11.90;87.76
68871;BME280;55906;52.278;6.808;2023-02-17T09:27:49;101515.47;;;11.94;87.39
68871;BME280;55906;52.278;6.808;2023-02-17T09:30:16;101512.78;;;11.92;87.51
68871;BME280;55906;52.278;6.808;2023-02-17T09:32:43;101511.19;;;11.97;87.51
68871;BME280;55906;52.278;6.808;2023-02-17T09:35:11;101509.47;;;11.99;87.21
68871;BME280;55906;52.278;6.808;2023-02-17T09:37:38;101506.03;;;12.02;86.52
68871;BME280;55906;52.278;6.808;2023-02-17T09:40:06;101515.13;;;12.11;86.32
68871;BME280;55906;52.278;6.808;2023-02-17T09:42:36;101484.47;;;12.15;85.84
68871;BME280;55906;52.278;6.808;2023-02-17T09:45:08;101463.63;;;12.24;85.54
68871;BME280;55906;52.278;6.808;2023-02-17T09:47:37;101462.81;;;12.27;85.79
68871;BME280;55906;52.278;6.808;2023-02-17T09:50:09;101448.94;;;12.34;84.67
68871;BME280;55906;52.278;6.808;2023-02-17T09:52:43;101479.84;;;12.38;85.40
68871;BME280;55906;52.278;6.808;2023-02-17T09:55:16;101448.94;;;12.34;84.95
68871;BME280;55906;52.278;6.808;2023-02-17T09:57:48;101448.13;;;12.36;84.24
68871;BME280;55906;52.278;6.808;2023-02-17T10:00:20;101445.66;;;12.42;83.99
68871;BME280;55906;52.278;6.808;2023-02-17T10:02:54;101449.28;;;12.46;83.94
68871;BME280;55906;52.278;6.808;2023-02-17T10:05:27;101467.78;;;12.47;83.78
68871;BME280;55906;52.278;6.808;2023-02-17T10:08:01;101455.56;;;12.51;83.45
68871;BME280;55906;52.278;6.808;2023-02-17T10:10:37;101494.28;;;12.50;83.45
68871;BME280;55906;52.278;6.808;2023-02-17T10:13:08;101471.41;;;12.51;83.46
68871;BME280;55906;52.278;6.808;2023-02-17T10:15:38;101447.75;;;12.54;83.26
68871;BME280;55906;52.278;6.808;2023-02-17T10:18:10;101447.81;;;12.57;82.85
68871;BME280;55906;52.278;6.808;2023-02-17T10:20:40;101454.19;;;12.65;82.42
68871;BME280;55906;52.278;6.808;2023-02-17T10:23:12;101440.22;;;12.69;82.59
68871;BME280;55906;52.278;6.808;2023-02-17T10:25:53;101434.19;;;12.73;82.04
68871;BME280;55906;52.278;6.808;2023-02-17T10:28:32;101454.59;;;12.80;81.86
68871;BME280;55906;52.278;6.808;2023-02-17T10:31:09;101454.75;;;12.87;81.73
68871;BME280;55906;52.278;6.808;2023-02-17T10:33:50;101463.66;;;12.90;81.13
68871;BME280;55906;52.278;6.808;2023-02-17T10:36:24;101450.56;;;12.95;80.71
68871;BME280;55906;52.278;6.808;2023-02-17T10:38:55;101433.75;;;12.91;81.24
68871;BME280;55906;52.278;6.808;2023-02-17T10:41:32;101443.59;;;12.97;80.97
68871;BME280;55906;52.278;6.808;2023-02-17T10:44:03;101440.13;;;12.99;81.17
68871;BME280;55906;52.278;6.808;2023-02-17T10:46:32;101422.44;;;12.97;80.85
68871;BME280;55906;52.278;6.808;2023-02-17T10:48:59;101425.94;;;12.96;80.87
68871;BME280;55906;52.278;6.808;2023-02-17T10:51:28;101430.44;;;13.00;80.88
68871;BME280;55906;52.278;6.808;2023-02-17T10:54:00;101462.16;;;13.00;80.74
68871;BME280;55906;52.278;6.808;2023-02-17T10:56:33;101439.16;;;12.96;80.94
68871;BME280;55906;52.278;6.808;2023-02-17T10:59:04;101480.56;;;12.97;80.57
68871;BME280;55906;52.278;6.808;2023-02-17T11:01:33;101479.63;;;12.95;80.23
68871;BME280;55906;52.278;6.808;2023-02-17T11:04:02;101498.22;;;12.99;80.83
68871;BME280;55906;52.278;6.808;2023-02-17T11:06:29;101503.41;;;12.95;81.04
68871;BME280;55906;52.278;6.808;2023-02-17T11:09:00;101484.91;;;12.95;80.87
68871;BME280;55906;52.278;6.808;2023-02-17T11:11:28;101487.63;;;12.98;80.48
68871;BME280;55906;52.278;6.808;2023-02-17T11:14:08;101531.69;;;12.99;80.83
68871;BME280;55906;52.278;6.808;2023-02-17T11:16:37;101484.91;;;12.95;80.99
68871;BME280;55906;52.278;6.808;2023-02-17T11:19:06;101479.66;;;12.96;80.70
68871;BME280;55906;52.278;6.808;2023-02-17T11:21:45;101454.91;;;12.93;80.72
68871;BME280;55906;52.278;6.808;2023-02-17T11:24:14;101480.41;;;12.91;81.17
68871;BME280;55906;52.278;6.808;2023-02-17T11:26:40;101511.00;;;12.82;81.33
68871;BME280;55906;52.278;6.808;2023-02-17T11:29:08;101481.06;;;12.82;81.47
68871;BME280;55906;52.278;6.808;2023-02-17T11:31:35;101507.38;;;12.79;81.77
68871;BME280;55906;52.278;6.808;2023-02-17T11:34:12;101508.19;;;12.76;81.54
68871;BME280;55906;52.278;6.808;2023-02-17T11:36:42;101507.28;;;12.76;81.62
68871;BME280;55906;52.278;6.808;2023-02-17T11:39:17;101516.88;;;12.72;82.10
68871;BME280;55906;52.278;6.808;2023-02-17T11:41:44;101521.22;;;12.70;82.38
68871;BME280;55906;52.278;6.808;2023-02-17T11:44:20;101534.41;;;12.70;82.31
68871;BME280;55906;52.278;6.808;2023-02-17T11:46:54;101518.66;;;12.73;81.87
68871;BME280;55906;52.278;6.808;2023-02-17T11:49:36;101516.06;;;12.75;82.13
68871;BME280;55906;52.278;6.808;2023-02-17T11:52:16;101528.03;;;12.62;83.02
68871;BME280;55906;52.278;6.808;2023-02-17T11:54:56;101523.59;;;12.61;82.82
68871;BME280;55906;52.278;6.808;2023-02-17T11:57:35;101504.28;;;12.62;82.95
68871;BME280;55906;52.278;6.808;2023-02-17T12:00:12;101518.38;;;12.63;82.88
68871;BME280;55906;52.278;6.808;2023-02-17T12:02:53;101524.50;;;12.62;83.34
68871;BME280;55906;52.278;6.808;2023-02-17T12:05:25;101502.56;;;12.64;82.88
68871;BME280;55906;52.278;6.808;2023-02-17T12:08:05;101509.63;;;12.65;83.06
68871;BME280;55906;52.278;6.808;2023-02-17T12:10:57;101532.28;;;12.57;83.37
68871;BME280;55906;52.278;6.808;2023-02-17T12:13:38;101511.16;;;12.57;83.46
68871;BME280;55906;52.278;6.808;2023-02-17T12:16:17;101525.25;;;12.58;83.46
68871;BME280;55906;52.278;6.808;2023-02-17T12:18:58;101501.38;;;12.53;83.47
68871;BME280;55906;52.278;6.808;2023-02-17T12:21:38;101501.38;;;12.53;83.45
68871;BME280;55906;52.278;6.808;2023-02-17T12:24:33;101492.63;;;12.54;83.86
68871;BME280;55906;52.278;6.808;2023-02-17T12:27:09;101526.03;;;12.54;83.68
68871;BME280;55906;52.278;6.808;2023-02-17T12:29:54;101528.72;;;12.55;83.68
68871;BME280;55906;52.278;6.808;2023-02-17T12:32:33;101500.47;;;12.53;83.61
68871;BME280;55906;52.278;6.808;2023-02-17T12:35:14;101534.84;;;12.54;83.80
68871;BME280;55906;52.278;6.808;2023-02-17T12:37:47;101534.97;;;12.59;84.00
68871;BME280;55906;52.278;6.808;2023-02-17T12:40:24;101545.41;;;12.54;83.88
68871;BME280;55906;52.278;6.808;2023-02-17T12:42:58;101555.00;;;12.52;84.03
68871;BME280;55906;52.278;6.808;2023-02-17T12:45:36;101557.66;;;12.52;85.66
68871;BME280;55906;52.278;6.808;2023-02-17T12:48:06;101559.00;;;12.38;86.99
68871;BME280;55906;52.278;6.808;2023-02-17T12:50:48;101564.06;;;12.30;88.19
68871;BME280;55906;52.278;6.808;2023-02-17T12:53:20;101563.72;;;12.20;89.50
68871;BME280;55906;52.278;6.808;2023-02-17T12:55:54;101562.50;;;12.08;90.19
68871;BME280;55906;52.278;6.808;2023-02-17T12:58:25;101563.25;;;12.04;90.77
68871;BME280;55906;52.278;6.808;2023-02-17T13:00:57;101582.38;;;11.97;91.29
68871;BME280;55906;52.278;6.808;2023-02-17T13:03:28;101576.06;;;11.92;90.80